METAR AND TAF INFORMATION
METAR FOR KSTS
ADDS - METARS form results

(1745 UTC 15 April 2021)
Data provider http://aviationweather.gov/metar/data/
 
METAR text: KSTS 151740Z 00000KT 7SM FEW015 11/06 A3006 RMK AO2 T01060061
Conditions at: KSTS (SANTA ROSA , CA, US) observed 1740 UTC 15 April 2021
Temperature: 10.6°C (51°F)
Dewpoint: 6.1°C (43°F) [RH = 74%]
Pressure (altimeter): 30.06 inches Hg (1018.0 mb)
Winds: calm
Visibility: 7 miles (11 km)
Ceiling: at least 12,000 feet AGL
Clouds: few clouds at 1500 feet AGL
Weather: no significant weather observed at this time

METAR text: KSTS 151727Z VRB03KT 8SM BKN011 10/06 A3006 RMK AO2 T01000061
Conditions at: KSTS (SANTA ROSA , CA, US) observed 1727 UTC 15 April 2021
Temperature: 10.0°C (50°F)
Dewpoint: 6.1°C (43°F) [RH = 77%]
Pressure (altimeter): 30.06 inches Hg (1018.0 mb)
Winds: variable direction winds at 3 MPH (3 knots; 1.5 m/s)
Visibility: 8 miles (13 km)
Ceiling: 1100 feet AGL
Clouds: broken clouds at 1100 feet AGL
Weather: no significant weather observed at this time

METAR text: KSTS 151654Z COR 00000KT 7SM OVC011 10/07 A3007 RMK AO2 SLP175 T01000067
Conditions at: KSTS (SANTA ROSA , CA, US) observed 1654 UTC 15 April 2021
Temperature: 10.0°C (50°F)
Dewpoint: 6.7°C (44°F) [RH = 80%]
Pressure (altimeter): 30.07 inches Hg (1018.4 mb)
[Sea-level pressure: 1017.5 mb]
Winds: calm
Visibility: 7 miles (11 km)
Ceiling: 1100 feet AGL
Clouds: overcast cloud deck at 1100 feet AGL
Weather: no significant weather observed at this time

METAR text: KSTS 151653Z 00000KT 7SM OVC011 10/07 A3007 RMK AO2 SLP175 T01000067
Conditions at: KSTS (SANTA ROSA , CA, US) observed 1653 UTC 15 April 2021
Temperature: 10.0°C (50°F)
Dewpoint: 6.7°C (44°F) [RH = 80%]
Pressure (altimeter): 30.07 inches Hg (1018.4 mb)
[Sea-level pressure: 1017.5 mb]
Winds: calm
Visibility: 7 miles (11 km)
Ceiling: 1100 feet AGL
Clouds: overcast cloud deck at 1100 feet AGL
Weather: no significant weather observed at this time

Forecast for: KSTS (SANTA ROSA , CA, US)
Text: KSTS 151732Z 1518/1618 VRB04KT P6SM FEW009
Forecast period: 1800 to 2100 UTC 15 April 2021
Forecast type: FROM: standard forecast or significant change
Winds: variable direction winds at 5 MPH (4 knots; 2.1 m/s)
Visibility: 6 or more miles (10+ km)
Ceiling: at least 12,000 feet AGL
Clouds: few clouds at 900 feet AGL
Weather: no significant weather forecast for this period
Text: FM152100 19008KT P6SM SKC
Forecast period: 2100 UTC 15 April 2021 to 0400 UTC 16 April 2021
Forecast type: FROM: standard forecast or significant change
Winds: from the S (190 degrees) at 9 MPH (8 knots; 4.1 m/s)
Visibility: 6 or more miles (10+ km)
Clouds: clear skies
Weather: no significant weather forecast for this period
Text: FM160400 16004KT P6SM SKC
Forecast period: 0400 to 0700 UTC 16 April 2021
Forecast type: FROM: standard forecast or significant change
Winds: from the SSE (160 degrees) at 5 MPH (4 knots; 2.1 m/s)
Visibility: 6 or more miles (10+ km)
Clouds: clear skies
Weather: no significant weather forecast for this period
Text: FM160700 VRB03KT 5SM BR BKN004
Forecast period: 0700 to 1730 UTC 16 April 2021
Forecast type: FROM: standard forecast or significant change
Winds: variable direction winds at 3 MPH (3 knots; 1.5 m/s)
Visibility: 5 miles (8 km)
Ceiling: 400 feet AGL
Clouds: broken clouds at 400 feet AGL
Weather: BR  (mist)
Text: FM161730 VRB03KT P6SM BKN008
Forecast period: 1730 to 1800 UTC 16 April 2021
Forecast type: FROM: standard forecast or significant change
Winds: variable direction winds at 3 MPH (3 knots; 1.5 m/s)
Visibility: 6 or more miles (10+ km)
Ceiling: 800 feet AGL
Clouds: broken clouds at 800 feet AGL
Weather: no significant weather forecast for this period

 AIRPORT MAP

 RUNWAY INFORMATION
Runway 01 Runway length 5002 ft Runway width 100 ft
Runway elevation 125 ft Runway displaced threshold 0 ft Runway heading 29
Runway 19 Runway length 5002 ft Runway width 100 ft
Runway elevation 111 ft Runway displaced threshold 0 ft Runway heading 209
Runway 14 Runway length 5115 ft Runway width 150 ft
Runway elevation 112 ft Runway displaced threshold 0 ft Runway heading 157
Runway 32 Runway length 5115 ft Runway width 150 ft
Runway elevation 117 ft Runway displaced threshold 0 ft Runway heading 337

 AIRPORT FREQUENCIES
Type A/D Name NORCAL APP Frequency 127.8 MHZ
Type ATIS Name ATIS Frequency 120.55 MHZ
Type CTAF Name CTAF Frequency 118.5 MHZ
Type GND Name GND Frequency 121.9 MHZ
Type TWR Name SANTA ROSA Frequency 118.5 MHZ
Type UNIC Name UNICOM Frequency 122.95 MHZ

 AIRPORT NEAR NAVIGATION AIDS

-